sensor_id;sensor_type;location;lat;lon;timestamp;temperature;humidity
10046;DHT22;5063;50.878;4.742;2022-07-05T00:00:56;14.10;99.90
10046;DHT22;5063;50.878;4.742;2022-07-05T00:03:22;14.00;99.90
10046;DHT22;5063;50.878;4.742;2022-07-05T00:05:48;14.00;99.90
10046;DHT22;5063;50.878;4.742;2022-07-05T00:08:14;13.90;99.90
10046;DHT22;5063;50.878;4.742;2022-07-05T00:10:40;13.90;99.90
10046;DHT22;5063;50.878;4.742;2022-07-05T00:13:07;13.90;99.90
10046;DHT22;5063;50.878;4.742;2022-07-05T00:15:33;13.90;99.90
10046;DHT22;5063;50.878;4.742;2022-07-05T00:17:59;13.80;99.90
10046;DHT22;5063;50.878;4.742;2022-07-05T00:20:25;13.80;99.90
10046;DHT22;5063;50.878;4.742;2022-07-05T00:22:50;13.80;99.90
10046;DHT22;5063;50.878;4.742;2022-07-05T00:25:16;13.70;99.90
10046;DHT22;5063;50.878;4.742;2022-07-05T00:27:42;13.70;99.90
10046;DHT22;5063;50.878;4.742;2022-07-05T00:30:09;13.70;99.90
10046;DHT22;5063;50.878;4.742;2022-07-05T00:32:36;13.70;99.90
10046;DHT22;5063;50.878;4.742;2022-07-05T00:35:03;13.60;99.90
10046;DHT22;5063;50.878;4.742;2022-07-05T00:37:29;13.60;99.90
10046;DHT22;5063;50.878;4.742;2022-07-05T00:39:55;13.60;99.90
10046;DHT22;5063;50.878;4.742;2022-07-05T00:42:21;13.60;99.90
10046;DHT22;5063;50.878;4.742;2022-07-05T00:44:46;13.50;99.90
10046;DHT22;5063;50.878;4.742;2022-07-05T00:47:12;13.50;99.90
10046;DHT22;5063;50.878;4.742;2022-07-05T00:49:39;13.40;99.90
10046;DHT22;5063;50.878;4.742;2022-07-05T00:52:06;13.40;99.90
10046;DHT22;5063;50.878;4.742;2022-07-05T00:54:34;13.40;99.90
10046;DHT22;5063;50.878;4.742;2022-07-05T00:57:00;13.40;99.90
10046;DHT22;5063;50.878;4.742;2022-07-05T00:59:27;13.40;99.90
10046;DHT22;5063;50.878;4.742;2022-07-05T01:01:53;13.30;99.90
10046;DHT22;5063;50.878;4.742;2022-07-05T01:04:19;13.30;99.90
10046;DHT22;5063;50.878;4.742;2022-07-05T01:06:47;13.30;99.90
10046;DHT22;5063;50.878;4.742;2022-07-05T01:09:15;13.30;99.90
10046;DHT22;5063;50.878;4.742;2022-07-05T01:11:45;13.30;99.90
10046;DHT22;5063;50.878;4.742;2022-07-05T01:14:13;13.30;99.90
10046;DHT22;5063;50.878;4.742;2022-07-05T01:16:41;13.20;99.90
10046;DHT22;5063;50.878;4.742;2022-07-05T01:19:07;13.20;99.90
10046;DHT22;5063;50.878;4.742;2022-07-05T01:21:43;13.10;99.90
10046;DHT22;5063;50.878;4.742;2022-07-05T01:24:11;13.10;99.90
10046;DHT22;5063;50.878;4.742;2022-07-05T01:26:38;13.10;99.90
10046;DHT22;5063;50.878;4.742;2022-07-05T01:29:04;13.10;99.90
10046;DHT22;5063;50.878;4.742;2022-07-05T01:31:30;13.00;99.90
10046;DHT22;5063;50.878;4.742;2022-07-05T01:33:56;13.00;99.90
10046;DHT22;5063;50.878;4.742;2022-07-05T01:36:22;13.00;99.90
10046;DHT22;5063;50.878;4.742;2022-07-05T01:38:49;13.00;99.90
10046;DHT22;5063;50.878;4.742;2022-07-05T01:41:15;13.00;99.90
10046;DHT22;5063;50.878;4.742;2022-07-05T01:43:41;13.00;99.90
10046;DHT22;5063;50.878;4.742;2022-07-05T01:46:08;13.00;99.90
10046;DHT22;5063;50.878;4.742;2022-07-05T01:48:35;13.00;99.90
10046;DHT22;5063;50.878;4.742;2022-07-05T01:51:09;12.90;99.90
10046;DHT22;5063;50.878;4.742;2022-07-05T01:53:36;12.90;99.90
10046;DHT22;5063;50.878;4.742;2022-07-05T01:56:04;12.90;99.90
10046;DHT22;5063;50.878;4.742;2022-07-05T01:58:31;12.80;99.90
10046;DHT22;5063;50.878;4.742;2022-07-05T02:00:57;12.80;99.90
10046;DHT22;5063;50.878;4.742;2022-07-05T02:03:24;12.90;99.90
10046;DHT22;5063;50.878;4.742;2022-07-05T02:05:50;12.70;99.90
10046;DHT22;5063;50.878;4.742;2022-07-05T02:08:17;12.70;99.90
10046;DHT22;5063;50.878;4.742;2022-07-05T02:10:43;12.70;99.90
10046;DHT22;5063;50.878;4.742;2022-07-05T02:13:10;12.70;99.90
10046;DHT22;5063;50.878;4.742;2022-07-05T02:15:38;12.60;99.90
10046;DHT22;5063;50.878;4.742;2022-07-05T02:18:05;12.60;99.90
10046;DHT22;5063;50.878;4.742;2022-07-05T02:20:32;12.60;99.90
10046;DHT22;5063;50.878;4.742;2022-07-05T02:22:58;12.60;99.90
10046;DHT22;5063;50.878;4.742;2022-07-05T02:25:24;12.50;99.90
10046;DHT22;5063;50.878;4.742;2022-07-05T02:27:50;12.60;99.90
10046;DHT22;5063;50.878;4.742;2022-07-05T02:30:17;12.60;99.90
10046;DHT22;5063;50.878;4.742;2022-07-05T02:32:43;12.60;99.90
10046;DHT22;5063;50.878;4.742;2022-07-05T02:35:10;12.60;99.90
10046;DHT22;5063;50.878;4.742;2022-07-05T02:37:37;12.80;99.90
10046;DHT22;5063;50.878;4.742;2022-07-05T02:40:09;12.50;99.90
10046;DHT22;5063;50.878;4.742;2022-07-05T02:42:36;12.60;99.90
10046;DHT22;5063;50.878;4.742;2022-07-05T02:45:02;12.50;99.90
10046;DHT22;5063;50.878;4.742;2022-07-05T02:47:31;12.50;99.90
10046;DHT22;5063;50.878;4.742;2022-07-05T02:50:05;12.50;99.90
10046;DHT22;5063;50.878;4.742;2022-07-05T02:52:31;12.50;99.90
10046;DHT22;5063;50.878;4.742;2022-07-05T02:54:57;12.40;99.90
10046;DHT22;5063;50.878;4.742;2022-07-05T02:57:22;12.40;99.90
10046;DHT22;5063;50.878;4.742;2022-07-05T02:59:48;12.40;99.90
10046;DHT22;5063;50.878;4.742;2022-07-05T03:02:14;12.30;99.90
10046;DHT22;5063;50.878;4.742;2022-07-05T03:04:39;12.30;99.90
10046;DHT22;5063;50.878;4.742;2022-07-05T03:07:05;12.30;99.90
10046;DHT22;5063;50.878;4.742;2022-07-05T03:09:31;12.30;99.90
10046;DHT22;5063;50.878;4.742;2022-07-05T03:11:56;12.20;99.90
10046;DHT22;5063;50.878;4.742;2022-07-05T03:14:22;12.20;99.90
10046;DHT22;5063;50.878;4.742;2022-07-05T03:16:48;12.10;99.90
10046;DHT22;5063;50.878;4.742;2022-07-05T03:19:13;12.20;99.90
10046;DHT22;5063;50.878;4.742;2022-07-05T03:21:39;12.10;99.90
10046;DHT22;5063;50.878;4.742;2022-07-05T03:24:05;12.20;99.90
10046;DHT22;5063;50.878;4.742;2022-07-05T03:26:31;12.20;99.90
10046;DHT22;5063;50.878;4.742;2022-07-05T03:28:56;12.30;99.90
10046;DHT22;5063;50.878;4.742;2022-07-05T03:31:22;12.10;99.90
10046;DHT22;5063;50.878;4.742;2022-07-05T03:33:48;12.10;99.90
10046;DHT22;5063;50.878;4.742;2022-07-05T03:36:13;12.10;99.90
10046;DHT22;5063;50.878;4.742;2022-07-05T03:38:39;12.10;99.90
10046;DHT22;5063;50.878;4.742;2022-07-05T03:41:05;12.10;99.90
10046;DHT22;5063;50.878;4.742;2022-07-05T03:43:31;12.10;99.90
10046;DHT22;5063;50.878;4.742;2022-07-05T03:45:57;12.10;99.90
10046;DHT22;5063;50.878;4.742;2022-07-05T03:48:22;12.40;99.90
10046;DHT22;5063;50.878;4.742;2022-07-05T03:50:48;12.10;99.90
10046;DHT22;5063;50.878;4.742;2022-07-05T03:53:14;12.20;99.90
10046;DHT22;5063;50.878;4.742;2022-07-05T03:55:40;12.20;99.90
10046;DHT22;5063;50.878;4.742;2022-07-05T03:58:06;12.30;99.90
10046;DHT22;5063;50.878;4.742;2022-07-05T04:00:32;12.30;99.90
10046;DHT22;5063;50.878;4.742;2022-07-05T04:02:59;12.40;99.90
10046;DHT22;5063;50.878;4.742;2022-07-05T04:05:25;12.40;99.90
10046;DHT22;5063;50.878;4.742;2022-07-05T04:07:52;12.40;99.90
10046;DHT22;5063;50.878;4.742;2022-07-05T04:10:18;12.50;99.90
10046;DHT22;5063;50.878;4.742;2022-07-05T04:12:45;12.60;99.90
10046;DHT22;5063;50.878;4.742;2022-07-05T04:15:11;12.60;99.90
10046;DHT22;5063;50.878;4.742;2022-07-05T04:17:49;12.60;99.90
10046;DHT22;5063;50.878;4.742;2022-07-05T04:20:15;12.70;99.90
10046;DHT22;5063;50.878;4.742;2022-07-05T04:22:41;12.70;99.90
10046;DHT22;5063;50.878;4.742;2022-07-05T04:25:08;12.80;99.90
10046;DHT22;5063;50.878;4.742;2022-07-05T04:27:50;12.80;99.90
10046;DHT22;5063;50.878;4.742;2022-07-05T04:30:17;12.90;99.90
10046;DHT22;5063;50.878;4.742;2022-07-05T04:32:43;13.00;99.90
10046;DHT22;5063;50.878;4.742;2022-07-05T04:35:10;13.20;99.90
10046;DHT22;5063;50.878;4.742;2022-07-05T04:37:36;13.20;99.90
10046;DHT22;5063;50.878;4.742;2022-07-05T04:40:04;13.20;99.90
10046;DHT22;5063;50.878;4.742;2022-07-05T04:42:30;13.30;99.90
10046;DHT22;5063;50.878;4.742;2022-07-05T04:44:56;13.40;99.90
10046;DHT22;5063;50.878;4.742;2022-07-05T04:47:22;13.50;99.90
10046;DHT22;5063;50.878;4.742;2022-07-05T04:49:48;13.60;99.90
10046;DHT22;5063;50.878;4.742;2022-07-05T04:52:14;13.70;99.90
10046;DHT22;5063;50.878;4.742;2022-07-05T04:54:39;13.90;99.90
10046;DHT22;5063;50.878;4.742;2022-07-05T04:57:05;14.00;99.90
10046;DHT22;5063;50.878;4.742;2022-07-05T04:59:31;14.10;99.90
10046;DHT22;5063;50.878;4.742;2022-07-05T05:01:57;14.30;99.90
10046;DHT22;5063;50.878;4.742;2022-07-05T05:04:22;14.50;99.90
10046;DHT22;5063;50.878;4.742;2022-07-05T05:06:48;15.20;99.90
10046;DHT22;5063;50.878;4.742;2022-07-05T05:09:14;17.10;99.90
10046;DHT22;5063;50.878;4.742;2022-07-05T05:11:39;19.20;99.90
10046;DHT22;5063;50.878;4.742;2022-07-05T05:14:05;20.90;99.90
10046;DHT22;5063;50.878;4.742;2022-07-05T05:16:31;22.40;99.90
10046;DHT22;5063;50.878;4.742;2022-07-05T05:18:56;23.80;99.90
10046;DHT22;5063;50.878;4.742;2022-07-05T05:21:22;25.00;99.90
10046;DHT22;5063;50.878;4.742;2022-07-05T05:23:48;26.00;99.90
10046;DHT22;5063;50.878;4.742;2022-07-05T05:26:13;26.80;99.90
10046;DHT22;5063;50.878;4.742;2022-07-05T05:28:40;27.40;99.90
10046;DHT22;5063;50.878;4.742;2022-07-05T05:31:06;28.00;99.90
10046;DHT22;5063;50.878;4.742;2022-07-05T05:33:32;28.60;98.00
10046;DHT22;5063;50.878;4.742;2022-07-05T05:35:57;29.30;95.10
10046;DHT22;5063;50.878;4.742;2022-07-05T05:38:23;29.80;90.80
10046;DHT22;5063;50.878;4.742;2022-07-05T05:40:49;29.90;88.60
10046;DHT22;5063;50.878;4.742;2022-07-05T05:43:14;30.00;86.30
10046;DHT22;5063;50.878;4.742;2022-07-05T05:45:40;30.30;83.20
10046;DHT22;5063;50.878;4.742;2022-07-05T05:48:06;30.70;81.10
10046;DHT22;5063;50.878;4.742;2022-07-05T05:50:36;30.80;79.60
10046;DHT22;5063;50.878;4.742;2022-07-05T05:53:03;30.70;76.00
10046;DHT22;5063;50.878;4.742;2022-07-05T05:55:30;30.50;78.30
10046;DHT22;5063;50.878;4.742;2022-07-05T05:57:56;30.80;76.00
10046;DHT22;5063;50.878;4.742;2022-07-05T06:00:23;30.80;77.30
10046;DHT22;5063;50.878;4.742;2022-07-05T06:02:50;31.10;75.30
10046;DHT22;5063;50.878;4.742;2022-07-05T06:05:16;30.60;75.20
10046;DHT22;5063;50.878;4.742;2022-07-05T06:10:15;31.00;73.50
10046;DHT22;5063;50.878;4.742;2022-07-05T06:12:41;31.40;73.60
10046;DHT22;5063;50.878;4.742;2022-07-05T06:15:07;31.60;71.10
10046;DHT22;5063;50.878;4.742;2022-07-05T06:17:37;31.70;72.20
10046;DHT22;5063;50.878;4.742;2022-07-05T06:20:08;31.80;69.60
10046;DHT22;5063;50.878;4.742;2022-07-05T06:22:34;32.10;69.70
10046;DHT22;5063;50.878;4.742;2022-07-05T06:25:00;32.00;69.50
10046;DHT22;5063;50.878;4.742;2022-07-05T06:27:25;32.20;69.60
10046;DHT22;5063;50.878;4.742;2022-07-05T06:29:51;32.50;69.10
10046;DHT22;5063;50.878;4.742;2022-07-05T06:32:17;32.80;67.00
10046;DHT22;5063;50.878;4.742;2022-07-05T06:34:42;32.90;66.80
10046;DHT22;5063;50.878;4.742;2022-07-05T06:37:08;33.30;65.80
10046;DHT22;5063;50.878;4.742;2022-07-05T06:39:34;33.90;64.80
10046;DHT22;5063;50.878;4.742;2022-07-05T06:42:00;34.10;63.40
10046;DHT22;5063;50.878;4.742;2022-07-05T06:44:26;33.90;63.60
10046;DHT22;5063;50.878;4.742;2022-07-05T06:46:52;34.00;63.20
10046;DHT22;5063;50.878;4.742;2022-07-05T06:49:18;34.00;62.80
10046;DHT22;5063;50.878;4.742;2022-07-05T06:51:43;32.60;64.60
10046;DHT22;5063;50.878;4.742;2022-07-05T06:54:09;33.30;64.30
10046;DHT22;5063;50.878;4.742;2022-07-05T06:56:35;33.30;63.00
10046;DHT22;5063;50.878;4.742;2022-07-05T06:59:01;33.60;62.80
10046;DHT22;5063;50.878;4.742;2022-07-05T07:01:26;33.70;60.90
10046;DHT22;5063;50.878;4.742;2022-07-05T07:03:52;34.30;60.00
10046;DHT22;5063;50.878;4.742;2022-07-05T07:06:18;33.40;60.50
10046;DHT22;5063;50.878;4.742;2022-07-05T07:08:44;33.40;58.80
10046;DHT22;5063;50.878;4.742;2022-07-05T07:11:29;34.00;59.20
10046;DHT22;5063;50.878;4.742;2022-07-05T07:13:55;34.40;58.90
10046;DHT22;5063;50.878;4.742;2022-07-05T07:16:20;34.30;58.50
10046;DHT22;5063;50.878;4.742;2022-07-05T07:18:46;33.30;56.40
10046;DHT22;5063;50.878;4.742;2022-07-05T07:21:12;31.60;58.90
10046;DHT22;5063;50.878;4.742;2022-07-05T07:23:38;30.90;61.50
10046;DHT22;5063;50.878;4.742;2022-07-05T07:26:03;31.60;62.00
10046;DHT22;5063;50.878;4.742;2022-07-05T07:28:29;31.30;61.50
10046;DHT22;5063;50.878;4.742;2022-07-05T07:30:55;30.80;63.20
10046;DHT22;5063;50.878;4.742;2022-07-05T07:33:21;31.80;62.00
10046;DHT22;5063;50.878;4.742;2022-07-05T07:35:47;32.10;60.90
10046;DHT22;5063;50.878;4.742;2022-07-05T07:38:13;32.80;61.40
10046;DHT22;5063;50.878;4.742;2022-07-05T07:40:38;33.30;59.40
10046;DHT22;5063;50.878;4.742;2022-07-05T07:43:04;33.40;59.50
10046;DHT22;5063;50.878;4.742;2022-07-05T07:45:30;33.50;59.00
10046;DHT22;5063;50.878;4.742;2022-07-05T07:47:56;33.40;59.10
10046;DHT22;5063;50.878;4.742;2022-07-05T07:50:22;33.40;59.20
10046;DHT22;5063;50.878;4.742;2022-07-05T07:52:48;33.50;59.20
10046;DHT22;5063;50.878;4.742;2022-07-05T07:55:14;33.30;59.80
10046;DHT22;5063;50.878;4.742;2022-07-05T07:57:41;33.60;59.10
10046;DHT22;5063;50.878;4.742;2022-07-05T08:00:07;32.80;59.80
10046;DHT22;5063;50.878;4.742;2022-07-05T08:02:33;33.00;60.10
10046;DHT22;5063;50.878;4.742;2022-07-05T08:04:59;33.40;59.10
10046;DHT22;5063;50.878;4.742;2022-07-05T08:07:25;34.00;58.90
10046;DHT22;5063;50.878;4.742;2022-07-05T08:09:51;33.20;58.50
10046;DHT22;5063;50.878;4.742;2022-07-05T08:12:19;32.30;59.00
10046;DHT22;5063;50.878;4.742;2022-07-05T08:14:44;31.00;59.80
10046;DHT22;5063;50.878;4.742;2022-07-05T08:17:11;30.70;63.50
10046;DHT22;5063;50.878;4.742;2022-07-05T08:19:37;31.50;64.70
10046;DHT22;5063;50.878;4.742;2022-07-05T08:22:22;32.30;61.60
10046;DHT22;5063;50.878;4.742;2022-07-05T08:24:49;33.10;60.60
10046;DHT22;5063;50.878;4.742;2022-07-05T08:27:15;33.70;59.70
10046;DHT22;5063;50.878;4.742;2022-07-05T08:29:41;34.50;59.20
10046;DHT22;5063;50.878;4.742;2022-07-05T08:32:07;33.80;57.00
10046;DHT22;5063;50.878;4.742;2022-07-05T08:34:33;33.30;57.80
10046;DHT22;5063;50.878;4.742;2022-07-05T08:36:59;33.70;57.80
10046;DHT22;5063;50.878;4.742;2022-07-05T08:41:57;30.40;60.50
10046;DHT22;5063;50.878;4.742;2022-07-05T08:44:23;28.90;65.00
10046;DHT22;5063;50.878;4.742;2022-07-05T08:46:50;28.10;69.20
10046;DHT22;5063;50.878;4.742;2022-07-05T08:49:26;27.30;68.60
10046;DHT22;5063;50.878;4.742;2022-07-05T08:51:54;26.60;70.60
10046;DHT22;5063;50.878;4.742;2022-07-05T08:54:21;26.50;74.10
10046;DHT22;5063;50.878;4.742;2022-07-05T08:56:47;27.00;75.10
10046;DHT22;5063;50.878;4.742;2022-07-05T08:59:15;26.50;73.10
10046;DHT22;5063;50.878;4.742;2022-07-05T09:01:45;26.20;76.80
10046;DHT22;5063;50.878;4.742;2022-07-05T09:04:11;26.10;78.70
10046;DHT22;5063;50.878;4.742;2022-07-05T09:06:39;25.90;78.60
10046;DHT22;5063;50.878;4.742;2022-07-05T09:09:06;25.70;81.20
10046;DHT22;5063;50.878;4.742;2022-07-05T09:11:40;26.70;76.30
10046;DHT22;5063;50.878;4.742;2022-07-05T09:14:17;27.40;74.90
10046;DHT22;5063;50.878;4.742;2022-07-05T09:16:43;28.70;72.90
10046;DHT22;5063;50.878;4.742;2022-07-05T09:19:09;28.50;70.50
10046;DHT22;5063;50.878;4.742;2022-07-05T09:21:35;27.20;73.70
10046;DHT22;5063;50.878;4.742;2022-07-05T09:24:07;26.90;78.20
10046;DHT22;5063;50.878;4.742;2022-07-05T09:26:45;27.10;77.80
10046;DHT22;5063;50.878;4.742;2022-07-05T09:29:15;27.70;72.30
10046;DHT22;5063;50.878;4.742;2022-07-05T09:31:43;27.00;67.80
10046;DHT22;5063;50.878;4.742;2022-07-05T09:34:18;27.10;73.20
10046;DHT22;5063;50.878;4.742;2022-07-05T09:39:14;29.70;68.00
10046;DHT22;5063;50.878;4.742;2022-07-05T09:41:39;29.30;65.90
10046;DHT22;5063;50.878;4.742;2022-07-05T09:44:05;28.50;68.90
10046;DHT22;5063;50.878;4.742;2022-07-05T09:46:32;27.10;70.60
10046;DHT22;5063;50.878;4.742;2022-07-05T09:48:58;25.90;75.60
10046;DHT22;5063;50.878;4.742;2022-07-05T09:51:25;25.60;77.30
10046;DHT22;5063;50.878;4.742;2022-07-05T09:53:53;25.70;79.60
10046;DHT22;5063;50.878;4.742;2022-07-05T09:56:19;25.60;79.30
10046;DHT22;5063;50.878;4.742;2022-07-05T09:58:46;25.40;85.80
10046;DHT22;5063;50.878;4.742;2022-07-05T10:01:42;25.40;87.50
10046;DHT22;5063;50.878;4.742;2022-07-05T10:04:08;24.90;84.90
10046;DHT22;5063;50.878;4.742;2022-07-05T10:06:34;25.00;87.50
10046;DHT22;5063;50.878;4.742;2022-07-05T10:09:01;24.80;88.70
10046;DHT22;5063;50.878;4.742;2022-07-05T10:11:27;24.70;88.90
10046;DHT22;5063;50.878;4.742;2022-07-05T10:13:55;25.10;88.00
10046;DHT22;5063;50.878;4.742;2022-07-05T10:16:23;25.80;88.90
10046;DHT22;5063;50.878;4.742;2022-07-05T10:18:54;26.10;86.00
10046;DHT22;5063;50.878;4.742;2022-07-05T10:21:24;25.30;85.30
10046;DHT22;5063;50.878;4.742;2022-07-05T10:23:51;25.80;89.90
10046;DHT22;5063;50.878;4.742;2022-07-05T10:26:20;26.30;86.70
10046;DHT22;5063;50.878;4.742;2022-07-05T10:28:48;26.70;83.00
10046;DHT22;5063;50.878;4.742;2022-07-05T10:31:16;26.90;80.00
10046;DHT22;5063;50.878;4.742;2022-07-05T10:33:42;26.60;80.80
10046;DHT22;5063;50.878;4.742;2022-07-05T10:36:12;26.40;77.30
10046;DHT22;5063;50.878;4.742;2022-07-05T10:38:41;25.80;80.80
10046;DHT22;5063;50.878;4.742;2022-07-05T10:41:18;25.40;83.80
10046;DHT22;5063;50.878;4.742;2022-07-05T10:43:45;24.90;90.10
10046;DHT22;5063;50.878;4.742;2022-07-05T10:46:19;24.50;91.20
10046;DHT22;5063;50.878;4.742;2022-07-05T10:49:16;24.60;91.40
10046;DHT22;5063;50.878;4.742;2022-07-05T10:51:45;25.00;86.60
10046;DHT22;5063;50.878;4.742;2022-07-05T10:54:12;25.40;90.80
10046;DHT22;5063;50.878;4.742;2022-07-05T10:56:38;25.80;89.80
10046;DHT22;5063;50.878;4.742;2022-07-05T10:59:09;25.80;90.00
10046;DHT22;5063;50.878;4.742;2022-07-05T11:01:41;25.40;83.80
10046;DHT22;5063;50.878;4.742;2022-07-05T11:11:39;26.50;89.10
10046;DHT22;5063;50.878;4.742;2022-07-05T11:14:29;26.70;76.90
10046;DHT22;5063;50.878;4.742;2022-07-05T11:17:15;25.70;73.10
10046;DHT22;5063;50.878;4.742;2022-07-05T11:20:15;25.60;75.40
10046;DHT22;5063;50.878;4.742;2022-07-05T11:23:12;25.30;76.70
10046;DHT22;5063;50.878;4.742;2022-07-05T11:25:43;25.30;84.60
10046;DHT22;5063;50.878;4.742;2022-07-05T11:28:16;25.20;87.40
10046;DHT22;5063;50.878;4.742;2022-07-05T11:33:29;25.50;90.30
10046;DHT22;5063;50.878;4.742;2022-07-05T11:35:56;26.00;84.90
10046;DHT22;5063;50.878;4.742;2022-07-05T11:38:23;26.00;84.90
10046;DHT22;5063;50.878;4.742;2022-07-05T11:40:48;26.60;82.20
10046;DHT22;5063;50.878;4.742;2022-07-05T11:43:14;26.60;78.00
10046;DHT22;5063;50.878;4.742;2022-07-05T11:45:58;27.00;80.30
10046;DHT22;5063;50.878;4.742;2022-07-05T11:48:29;27.30;80.50
10046;DHT22;5063;50.878;4.742;2022-07-05T11:50:55;27.50;72.00
10046;DHT22;5063;50.878;4.742;2022-07-05T11:53:30;26.90;75.40
10046;DHT22;5063;50.878;4.742;2022-07-05T11:56:00;26.40;72.70
10046;DHT22;5063;50.878;4.742;2022-07-05T11:58:33;25.80;76.20
10046;DHT22;5063;50.878;4.742;2022-07-05T12:01:00;25.20;80.30
10046;DHT22;5063;50.878;4.742;2022-07-05T12:03:29;25.10;85.50
10046;DHT22;5063;50.878;4.742;2022-07-05T12:05:55;25.20;83.50
10046;DHT22;5063;50.878;4.742;2022-07-05T12:08:25;25.70;85.20
10046;DHT22;5063;50.878;4.742;2022-07-05T12:10:54;26.20;83.40
10046;DHT22;5063;50.878;4.742;2022-07-05T12:13:45;26.80;77.50
10046;DHT22;5063;50.878;4.742;2022-07-05T12:16:12;26.50;74.20
10046;DHT22;5063;50.878;4.742;2022-07-05T12:18:52;26.70;75.40
10046;DHT22;5063;50.878;4.742;2022-07-05T12:21:22;27.20;77.00
10046;DHT22;5063;50.878;4.742;2022-07-05T12:23:49;27.40;71.40
10046;DHT22;5063;50.878;4.742;2022-07-05T12:26:16;27.20;70.40
10046;DHT22;5063;50.878;4.742;2022-07-05T12:28:43;26.80;74.10
10046;DHT22;5063;50.878;4.742;2022-07-05T12:31:24;26.40;75.50
10046;DHT22;5063;50.878;4.742;2022-07-05T12:33:51;26.10;76.10
10046;DHT22;5063;50.878;4.742;2022-07-05T12:36:19;26.20;77.30
10046;DHT22;5063;50.878;4.742;2022-07-05T12:38:46;25.70;81.20
10046;DHT22;5063;50.878;4.742;2022-07-05T12:41:20;25.30;82.90
10046;DHT22;5063;50.878;4.742;2022-07-05T12:43:49;25.20;88.20
10046;DHT22;5063;50.878;4.742;2022-07-05T12:46:16;25.20;86.80
10046;DHT22;5063;50.878;4.742;2022-07-05T12:48:42;25.10;85.10
10046;DHT22;5063;50.878;4.742;2022-07-05T12:51:09;24.90;86.80
10046;DHT22;5063;50.878;4.742;2022-07-05T12:53:44;25.00;90.40
10046;DHT22;5063;50.878;4.742;2022-07-05T12:56:29;25.50;89.80
10046;DHT22;5063;50.878;4.742;2022-07-05T12:59:13;25.50;85.30
10046;DHT22;5063;50.878;4.742;2022-07-05T13:01:41;25.20;82.30
10046;DHT22;5063;50.878;4.742;2022-07-05T13:04:15;25.30;89.50
10046;DHT22;5063;50.878;4.742;2022-07-05T13:06:43;25.50;89.80
10046;DHT22;5063;50.878;4.742;2022-07-05T13:09:11;25.50;87.70
10046;DHT22;5063;50.878;4.742;2022-07-05T13:11:37;24.70;92.90
10046;DHT22;5063;50.878;4.742;2022-07-05T13:14:03;24.50;95.10
10046;DHT22;5063;50.878;4.742;2022-07-05T13:16:29;25.00;94.40
10046;DHT22;5063;50.878;4.742;2022-07-05T13:18:55;25.30;93.90
10046;DHT22;5063;50.878;4.742;2022-07-05T13:21:20;25.60;91.10
10046;DHT22;5063;50.878;4.742;2022-07-05T13:23:46;25.70;91.40
10046;DHT22;5063;50.878;4.742;2022-07-05T13:26:12;25.80;90.40
10046;DHT22;5063;50.878;4.742;2022-07-05T13:28:38;25.40;90.50
10046;DHT22;5063;50.878;4.742;2022-07-05T13:31:04;25.80;91.30
10046;DHT22;5063;50.878;4.742;2022-07-05T13:33:31;26.10;89.50
10046;DHT22;5063;50.878;4.742;2022-07-05T13:35:57;26.10;84.40
10046;DHT22;5063;50.878;4.742;2022-07-05T13:38:23;26.00;82.70
10046;DHT22;5063;50.878;4.742;2022-07-05T13:40:48;25.80;83.90
10046;DHT22;5063;50.878;4.742;2022-07-05T13:43:14;25.70;85.30
10046;DHT22;5063;50.878;4.742;2022-07-05T13:45:40;25.50;86.50
10046;DHT22;5063;50.878;4.742;2022-07-05T13:48:06;24.90;92.80
10046;DHT22;5063;50.878;4.742;2022-07-05T13:50:32;24.60;95.70
10046;DHT22;5063;50.878;4.742;2022-07-05T13:52:59;24.70;96.80
10046;DHT22;5063;50.878;4.742;2022-07-05T13:55:25;25.00;97.10
10046;DHT22;5063;50.878;4.742;2022-07-05T13:57:52;24.90;93.60
10046;DHT22;5063;50.878;4.742;2022-07-05T14:00:18;24.70;95.60
10046;DHT22;5063;50.878;4.742;2022-07-05T14:02:45;24.90;96.30
10046;DHT22;5063;50.878;4.742;2022-07-05T14:05:10;25.00;94.10
10046;DHT22;5063;50.878;4.742;2022-07-05T14:07:37;25.40;93.30
10046;DHT22;5063;50.878;4.742;2022-07-05T14:10:06;25.60;93.20
10046;DHT22;5063;50.878;4.742;2022-07-05T14:12:31;25.20;92.70
10046;DHT22;5063;50.878;4.742;2022-07-05T14:14:57;24.80;93.80
10046;DHT22;5063;50.878;4.742;2022-07-05T14:17:23;24.40;96.20
10046;DHT22;5063;50.878;4.742;2022-07-05T14:19:49;24.30;96.10
10046;DHT22;5063;50.878;4.742;2022-07-05T14:22:14;24.20;96.50
10046;DHT22;5063;50.878;4.742;2022-07-05T14:24:40;24.40;97.40
10046;DHT22;5063;50.878;4.742;2022-07-05T14:27:06;24.20;96.20
10046;DHT22;5063;50.878;4.742;2022-07-05T14:29:33;23.90;96.60
10046;DHT22;5063;50.878;4.742;2022-07-05T14:31:59;24.00;97.80
10046;DHT22;5063;50.878;4.742;2022-07-05T14:34:25;23.80;97.20
10046;DHT22;5063;50.878;4.742;2022-07-05T14:36:51;24.00;95.50
10046;DHT22;5063;50.878;4.742;2022-07-05T14:39:17;23.70;96.50
10046;DHT22;5063;50.878;4.742;2022-07-05T14:41:42;23.70;95.60
10046;DHT22;5063;50.878;4.742;2022-07-05T14:44:09;23.50;97.90
10046;DHT22;5063;50.878;4.742;2022-07-05T14:46:35;23.40;99.90
10046;DHT22;5063;50.878;4.742;2022-07-05T14:49:00;23.40;99.70
10046;DHT22;5063;50.878;4.742;2022-07-05T14:51:26;23.30;99.80
10046;DHT22;5063;50.878;4.742;2022-07-05T14:53:52;23.20;99.60
10046;DHT22;5063;50.878;4.742;2022-07-05T14:56:18;23.30;98.80
10046;DHT22;5063;50.878;4.742;2022-07-05T14:58:44;23.40;99.90
10046;DHT22;5063;50.878;4.742;2022-07-05T15:01:10;23.30;99.90
10046;DHT22;5063;50.878;4.742;2022-07-05T15:03:36;23.40;99.90
10046;DHT22;5063;50.878;4.742;2022-07-05T15:06:02;24.00;99.20
10046;DHT22;5063;50.878;4.742;2022-07-05T15:08:31;23.80;99.10
10046;DHT22;5063;50.878;4.742;2022-07-05T15:10:57;23.90;99.10
10046;DHT22;5063;50.878;4.742;2022-07-05T15:13:22;23.50;99.90
10046;DHT22;5063;50.878;4.742;2022-07-05T15:15:51;23.30;99.90
10046;DHT22;5063;50.878;4.742;2022-07-05T15:18:17;23.00;99.90
10046;DHT22;5063;50.878;4.742;2022-07-05T15:20:42;22.80;99.90
10046;DHT22;5063;50.878;4.742;2022-07-05T15:23:08;22.70;99.90
10046;DHT22;5063;50.878;4.742;2022-07-05T15:25:34;22.90;99.90
10046;DHT22;5063;50.878;4.742;2022-07-05T15:28:00;23.30;99.90
10046;DHT22;5063;50.878;4.742;2022-07-05T15:30:26;23.30;99.90
10046;DHT22;5063;50.878;4.742;2022-07-05T15:32:51;23.30;99.90
10046;DHT22;5063;50.878;4.742;2022-07-05T15:35:17;23.50;99.90
10046;DHT22;5063;50.878;4.742;2022-07-05T15:37:44;23.80;99.90
10046;DHT22;5063;50.878;4.742;2022-07-05T15:40:10;24.10;99.30
10046;DHT22;5063;50.878;4.742;2022-07-05T15:42:36;24.50;95.90
10046;DHT22;5063;50.878;4.742;2022-07-05T15:45:02;24.60;94.80
10046;DHT22;5063;50.878;4.742;2022-07-05T15:47:28;24.70;93.50
10046;DHT22;5063;50.878;4.742;2022-07-05T15:49:54;24.60;93.10
10046;DHT22;5063;50.878;4.742;2022-07-05T15:52:20;24.40;92.60
10046;DHT22;5063;50.878;4.742;2022-07-05T15:54:47;24.30;94.10
10046;DHT22;5063;50.878;4.742;2022-07-05T15:57:13;24.20;93.60
10046;DHT22;5063;50.878;4.742;2022-07-05T15:59:38;24.20;92.20
10046;DHT22;5063;50.878;4.742;2022-07-05T16:02:05;24.50;92.40
10046;DHT22;5063;50.878;4.742;2022-07-05T16:04:30;24.80;90.10